La Borrasca Perfecta

Tema creado por Highme el 26/02/2010 22:25
Responder
3 respuestas
Respuesta de Highme el 26/02/2010 22:25

La verdad que tiene nombre de pelicula.

http://www.elmundo.es/elmundo/2010/02/26/espana/1267207938.html

Respuesta de Highme el 26/02/2010 22:27

Lo mejor de todo las medidas que hay que tomar ante esta borrasca!!!
Esperemos que no sea para tanto.

Respuesta de Aparcamiento el 27/02/2010 00:39

Os recomiendo un seguimiento, como curiosidad, de sus consecuencias.

De momento, estós son los efectos en GCLP en pocas horas:

GCLP 270200Z 22036G47KT CAVOK 31/M01 Q1001 NOSIG=
GCLP 270145Z 22031G48KT CAVOK 31/00 Q1001 NOSIG=
GCLP 270130Z 20024G34KT CAVOK 28/02 Q1002 NOSIG=
GCLP 270110Z 20020KT CAVOK 29/01 Q1003 NOSIG=
GCLP 270100Z 23019G31KT 200V260 CAVOK 32/M00 Q1005 NOSIG=
GCLP 270035Z 22022G39KT 190V250 CAVOK 31/M00 Q1005 NOSIG=
GCLP 270030Z 21017G27KT 190V250 CAVOK 30/M00 Q1005 NOSIG=
GCLP 270000Z 22023G34KT CAVOK 31/00 Q1005 NOSIG=
GCLP 262330Z 21020G32KT CAVOK 30/M00 Q1005 NOSIG=
GCLP 262300Z 21018KT 170V240 CAVOK 29/01 Q1005 NOSIG=
GCLP 262230Z 20016G26KT CAVOK 28/01 Q1005 NOSIG=
GCLP 262209Z 20014KT CAVOK 27/03 Q1005 NOSIG=
GCLP 262200Z 20006G16KT 130V290 CAVOK 24/06 Q1005 NOSIG=
GCLP 262130Z VRB02KT CAVOK 20/17 Q1006 NOSIG=
GCLP 262100Z VRB02KT CAVOK 20/18 Q1006 NOSIG=
GCLP 262030Z 00000KT CAVOK 20/18 Q1006 NOSIG=
GCLP 262000Z VRB02KT CAVOK 21/19 Q1006 NOSIG=

Una buena página de meteo donde observarla…

OGIMET